Racecast

Aleah Clements

Temperance Bedford (MI) · 12 · SECMI D1MONROE · Compare head to head

Athlete rating 113.0 2016 XC season
Best race 114.3 XC
Races 81
Seasons 5 2014 — 2018

RankedNation #32584·MI #1570·MI D1 #937·SEC #96·Team #39 ?

Rating scale ?
Speed rating — all races

Cross Country

XC speed rating

2016 XC 110.8

Temperance Bedford (MI) · Grade 11

Date Meet Event Result Place Rating Difficulty PR/SR Flags
2016-10-20 Hudson Mills Metropark - OFFICIAL 5000m 22:02 26th · 6th on team 111.4 -0.006 ★CR CSR
2016-10-15 Hudson Mills Metropark - OFFICIAL 5000m 22:02.7 60th · 6th on team 112.5 -0.006 CR CSR
2016-10-08 Portage West MS 5000m 21:38 48th · 1st on team 114.3 -0.003 ★PR ★CR ★R SR CSR RSR
2016-10-01 Pearson's Metro Park 5000m 22:42.9 60th · 8th on team 108.9 +0.001 ★CR CSR
2016-09-27 Pioneer HS 5000m 22:56.9 31st · 1st on team 110.9 +0.018 ★CR CSR
2016-09-17 Springfield Oaks County Park OFFICIAL 5000m 24:34 87th · 4th on team 105.6 +0.019 ★CR CSR
2016-09-13 Heritage Park (Adrian) OFFICIAL 5000m 22:33.5 52nd · 4th on team 113.8 +0.035 ★CR R CSR RSR
2016-09-10 Hedges Boyer Park 5000m 22:23.1 165th · 3rd on team 111.0 -0.003 PR ★CR R SR CSR RSR
2016-08-25 Heritage Park (Adrian) OFFICIAL 5000m 23:36.3 29th · 5th on team 108.7 +0.035 PR CR SR CSR RSR

Track & Field

TF speed rating

2018 TF

Temperance Bedford (MI) · Grade 12

Date Meet Event Result Place Rating Difficulty PR/SR Flags
2018-05-26 2018 MITCA D1 Team State Championships 100mh 17.25 17th · 2nd on team -0.018 ★PR SR
2018-05-26 2018 MITCA D1 Team State Championships 300mh 49.5 10th · 1st on team -0.018
2018-05-18 MHSAA LP Region 03-1 @ Saline 300mh 49.58 7th · 1st on team -0.033
2018-05-11 SEC Red Championship 100mh 17.29 4th · 1st on team -0.024 PR SR
2018-05-11 SEC Red Championship 300mh 49.43 4th · 1st on team -0.024 SR
2018-05-07 SEC Red: Huron @ Bedford 300mh 50.64 1st · 1st on team -0.026
2018-05-07 SEC Red: Huron @ Bedford 100mh 17.44 1st · 1st on team -0.026 PR SR
2018-05-01 SEC Red: Bedford & Skyline @ Monroe 300mh 50.43 2nd · 1st on team -0.022
2018-05-01 SEC Red: Bedford & Skyline @ Monroe 100mh 17.75 3rd · 2nd on team -0.022
2018-04-24 Saline/Bedford Dual 300mh 49.47 1st · 1st on team -0.033 SR
2018-04-24 Saline/Bedford Dual 100mh 17.6 2nd · 1st on team -0.033 SR
2018-04-21 Whitmore Lake HS Invite 300mh 52.11 4th · 1st on team -0.016
2018-04-21 Whitmore Lake HS Invite 100mh 18.44 8th · 2nd on team -0.016 SR
2018-04-21 Whitmore Lake HS Invite 100mh 18.09 6th · 1st on team -0.016 SR
2018-04-12 Springfield Invatational 300mh 51.48 3rd · 1st on team -0.020 SR

2017 TF

Temperance Bedford (MI) · Grade 11

Date Meet Event Result Place Rating Difficulty PR/SR Flags
2017-05-19 MHSAA LP Regional 03-1 @ Saline 100mh 17.58 19th · 2nd on team -0.033 PR SR
2017-05-19 MHSAA LP Regional 03-1 @ Saline 300mh 48.5 8th · 1st on team -0.033 ★PR SR
2017-04-28 Nancy Erme Relays 300mh 50.95 4th · 1st on team -0.034
2017-04-25 SEC Red: Bedford @ Skyline 300mh 50.39 2nd · 1st on team -0.021 PR SR
2017-04-25 SEC Red: Bedford @ Skyline 100mh 18.19 4th · 2nd on team -0.021 PR SR
2017-04-25 SEC Red: Bedford @ Skyline 200m 30.43 12th · 6th on team -0.021 ★PR SR
2017-04-13 Springfield Invitational 300mh 52.99 5th · 1st on team -0.020
2017-04-08 Whitmer Golden W Invitational 300mh 51.57 4th · 1st on team -0.034 SR
2017-03-28 SEC Red: Bedford @ Pioneer 300mh 54.49 2nd · 1st on team -0.017 SR
2017-02-26 MITS Indoor State Championships 60mh 11.62 94th · 26th on team -0.032 ★PR SR

2016 TF

Temperance Bedford (MI) · Grade 10

Date Meet Event Result Place Rating Difficulty PR/SR Flags
2016-05-20 MHSAA LP Regional 03-1 @ Saline 100mh 18.23 24th · 2nd on team -0.033 PR SR
2016-05-20 MHSAA LP Regional 03-1 @ Saline 300mh 51.63 14th · 1st on team -0.033
2016-05-13 SEC Red Division Finals 300mh 51.22 7th · 1st on team -0.021 PR SR
2016-05-13 SEC Red Division Finals 100mh 18.25 10th · 2nd on team -0.021 PR SR
2016-05-03 SEC Tri: Huron/Skyline @ Bedford 300mh 53.46 4th · 2nd on team -0.026 SR
2016-04-26 Bedford @ Monroe 300mh 53.54 1st · 1st on team -0.022 SR
2016-04-26 Bedford @ Monroe 200m 30.84 3rd · 3rd on team -0.022 PR SR
2016-04-26 Bedford @ Monroe 100mh 19.04 3rd · 2nd on team -0.022
2016-04-23 Whitmore Lake HS Invite 100mh 18.47 10th · 3rd on team -0.016 PR SR
2016-04-23 Whitmore Lake HS Invite 300mh 53.8 4th · 1st on team -0.016 SR
2016-04-23 Whitmore Lake HS Invite 100mh 18.52 11th · 4th on team -0.016
2016-04-19 Saline @ Bedford 100mh 19.41 6th · 2nd on team -0.026 SR
2016-04-19 Saline @ Bedford 400m 1:12.12 2nd · 2nd on team -0.026 ★PR SR
2016-04-19 Saline @ Bedford 300mh 57.43 6th · 2nd on team -0.026
2016-04-19 Saline @ Bedford 200m 32.49 8th · 8th on team -0.026
2016-04-14 Springfield Invitational 300mh 54.88 6th · 1st on team -0.020 SR
2016-04-12 SEC: Bedford @ Pioneer 300mh 56.25 3rd · 1st on team -0.017 SR
2016-04-12 SEC: Bedford @ Pioneer 100mh 19.66 3rd · 2nd on team -0.017 SR
2016-04-12 SEC: Bedford @ Pioneer 200m 32.46 16th · 11th on team -0.017 PR SR

2015 TF

Temperance Bedford (MI) · Grade 9

Date Meet Event Result Place Rating Difficulty PR/SR Flags
2015-05-15 MHSAA LP Regional 03-1 @ Saline 300mh 51.8 12th · 2nd on team -0.033 PR SR
2015-05-12 SEC: Bedford @ Huron 100mh 19.04 3rd · 3rd on team -0.024
2015-05-12 SEC: Bedford @ Huron 300mh 55.04 3rd · 2nd on team -0.024
2015-05-07 SEC: Red Division Finals 300mh 51.81 8th · 2nd on team -0.022 PR SR
2015-05-07 SEC: Red Division Finals 100mh 18.48 12th · 3rd on team -0.022 PR SR
2015-04-28 SEC: Skyline @ Bedford 100mh 18.54 6th · 3rd on team -0.026 PR SR
2015-04-25 Whitmore Lake HS Invite 100mh 18.74 6th · 5th on team -0.016 PR SR
2015-04-25 Whitmore Lake HS Invite 100mh 19.02 7th · 6th on team -0.016
2015-04-21 SEC: Bedford @ Pioneer 100mh 19.39 6th · 4th on team -0.017 PR SR
2015-04-21 SEC: Bedford @ Pioneer 400m 1:14.64 11th · 7th on team -0.017 PR SR
2015-04-21 SEC: Bedford @ Pioneer 200m 32.63 23rd · 10th on team -0.017 PR SR

2014 TF 105.7

Temperance Bedford (MI) · Grade 8

Date Meet Event Result Place Rating Difficulty PR/SR Flags
2014-05-21 Bedford vs Chelsea 200mh 39.24 3rd · 3rd on team -0.022
2014-05-21 Bedford vs Chelsea 55mh 11.24 2nd · 2nd on team -0.022
2014-05-19 Bedford vs Dexter 100m 17.14 8th · 8th on team -0.026
2014-05-19 Bedford vs Dexter 200mh 36.44 1st · 1st on team -0.026
2014-05-19 Bedford vs Dexter 55mh 11.14 2nd · 2nd on team -0.026
2014-05-05 Bedford vs Ypsilanti 200mh 35.14 3rd · 3rd on team -0.021 ★PR SR
2014-05-05 Bedford vs Ypsilanti 400m 1:15.14 2nd · 2nd on team -0.021 PR SR
2014-05-05 Bedford vs Ypsilanti 55mh 12.04 2nd · 2nd on team -0.021
2014-04-28 Bedford vs Monroe 200mh 36.44 1st · 1st on team -0.026 PR SR
2014-04-28 Bedford vs Monroe 100m 16.64 4th · 4th on team -0.026 ★PR SR
2014-04-28 Bedford vs Monroe 55mh 11.04 2nd · 2nd on team -0.026
2014-04-16 Bedford TT 200m 33.24 13th · 13th on team -0.026 PR SR
2014-04-16 Bedford TT 400m 1:16.14 4th · 4th on team -0.026 PR SR
2014-04-16 Bedford TT 1600m 6:51 4th · 4th on team 110.0 -0.026 ★PR R SR RSR
2014-04-16 Bedford TT 800m 3:19 6th · 6th on team 101.4 -0.026 ★PR SR
2014-04-14 Bedford vs Tecumseh 55mh 11.04 2nd · 2nd on team -0.026 PR SR
2014-04-14 Bedford vs Tecumseh 200mh 36.64 2nd · 2nd on team -0.026 PR SR